Time;durP1;ratioP1;P1;durP2;ratioP2;P2;SDS_P1;SDS_P2;PMS_P1;PMS_P2;Temp;Humidity;BMP_temperature;BMP_pressure;BME280_temperature;BME280_humidity;BME280_pressure;Samples;Min_cycle;Max_cycle;Signal;HPM_P1;HPM_P2
2023/11/09 00:02:13;;;;;;;13.27;8.50;;;;;;;7.57;100.00;97984.72;5075562;28;20043;-75
2023/11/09 00:04:39;;;;;;;14.13;8.63;;;;;;;7.55;100.00;97983.94;5075676;28;20032;-77
2023/11/09 00:07:07;;;;;;;19.42;9.27;;;;;;;7.59;100.00;97984.69;5092900;28;20160;-75
2023/11/09 00:09:33;;;;;;;24.80;12.70;;;;;;;7.50;100.00;97990.41;5067776;28;20028;-76
2023/11/09 00:11:59;;;;;;;18.77;11.52;;;;;;;7.42;100.00;97977.41;5079132;28;20093;-77
2023/11/09 00:14:25;;;;;;;21.90;11.35;;;;;;;7.37;100.00;97990.03;5092662;28;20016;-76
2023/11/09 00:16:51;;;;;;;20.77;11.73;;;;;;;7.38;100.00;97996.25;5070360;28;20020;-76
2023/11/09 00:19:16;;;;;;;23.48;12.70;;;;;;;7.44;100.00;98003.97;5084195;28;20036;-77
2023/11/09 00:21:42;;;;;;;19.08;10.23;;;;;;;7.29;100.00;97993.97;5078571;28;20189;-76
2023/11/09 00:24:10;;;;;;;20.58;10.40;;;;;;;7.27;100.00;97994.00;5081409;28;20039;-75
2023/11/09 00:26:37;;;;;;;20.42;10.15;;;;;;;7.23;100.00;97984.41;5089769;28;20067;-77
2023/11/09 00:29:03;;;;;;;17.95;10.50;;;;;;;7.24;100.00;97986.16;5092740;28;20089;-76
2023/11/09 00:31:28;;;;;;;15.88;10.20;;;;;;;7.23;100.00;97979.09;5086495;28;20135;-76
2023/11/09 00:33:54;;;;;;;17.70;9.85;;;;;;;7.23;100.00;97967.63;5077553;28;20028;-75
2023/11/09 00:36:19;;;;;;;16.00;9.68;;;;;;;7.30;100.00;97979.72;5086989;28;20035;-77
2023/11/09 00:38:49;;;;;;;19.20;9.98;;;;;;;7.20;100.00;97973.06;5081026;28;20032;-77
2023/11/09 00:41:15;;;;;;;16.20;10.45;;;;;;;7.17;100.00;97962.56;5085956;28;20028;-76
2023/11/09 00:43:41;;;;;;;16.10;9.32;;;;;;;7.16;100.00;97939.53;5065008;28;20020;-76
2023/11/09 00:46:06;;;;;;;15.25;8.93;;;;;;;7.07;100.00;97952.25;5086573;28;20028;-76
2023/11/09 00:48:32;;;;;;;14.88;8.93;;;;;;;7.07;100.00;97944.28;5080670;28;20503;-76
2023/11/09 00:50:57;;;;;;;14.50;8.73;;;;;;;7.04;100.00;97947.06;5067780;28;20512;-77
2023/11/09 00:53:23;;;;;;;14.85;8.57;;;;;;;7.01;100.00;97949.84;5082252;28;20024;-76
2023/11/09 00:55:48;;;;;;;15.60;9.07;;;;;;;7.04;100.00;97947.06;5083585;28;20385;-76
2023/11/09 00:58:15;;;;;;;15.73;8.80;;;;;;;7.03;100.00;97944.50;5079051;28;20028;-76
2023/11/09 01:00:41;;;;;;;14.45;8.57;;;;;;;6.95;100.00;97944.78;5080405;28;20016;-76
2023/11/09 01:03:06;;;;;;;19.55;9.32;;;;;;;6.85;100.00;97953.22;5084372;28;20027;-76
2023/11/09 01:05:32;;;;;;;14.93;8.77;;;;;;;6.78;100.00;97947.28;5078761;28;20066;-77
2023/11/09 01:07:57;;;;;;;16.13;9.27;;;;;;;6.69;100.00;97966.28;5066614;28;20443;-77
2023/11/09 01:10:23;;;;;;;17.63;9.35;;;;;;;6.71;100.00;97961.75;5086317;28;20028;-76
2023/11/09 01:12:48;;;;;;;17.58;9.30;;;;;;;6.70;100.00;97960.03;5080692;28;20028;-77
2023/11/09 01:15:14;;;;;;;22.65;9.27;;;;;;;6.69;100.00;97958.28;5084688;28;20050;-76
2023/11/09 01:17:41;;;;;;;13.77;8.25;;;;;;;6.63;100.00;97953.22;5071593;28;20580;-76
2023/11/09 01:20:07;;;;;;;12.88;7.63;;;;;;;6.53;100.00;97941.22;5069931;28;20177;-77
2023/11/09 01:22:34;;;;;;;14.15;8.10;;;;;;;6.61;100.00;97955.09;5080670;28;20031;-77
2023/11/09 01:24:59;;;;;;;13.98;7.35;;;;;;;6.55;100.00;97950.84;5073105;28;20035;-76
2023/11/09 01:27:25;;;;;;;11.00;6.55;;;;;;;6.51;100.00;97951.06;5083331;28;20498;-75
2023/11/09 01:29:50;;;;;;;11.75;7.25;;;;;;;6.51;100.00;97956.38;5074748;28;20092;-76
2023/11/09 01:32:16;;;;;;;9.00;5.88;;;;;;;6.50;100.00;97962.59;5083015;28;20055;-77
2023/11/09 01:34:42;;;;;;;9.43;6.03;;;;;;;6.46;100.00;97964.50;5078824;28;20028;-76
2023/11/09 01:37:10;;;;;;;9.63;6.38;;;;;;;6.51;100.00;97967.00;5082812;28;20475;-76
2023/11/09 01:39:39;;;;;;;9.23;6.07;;;;;;;6.39;100.00;97954.19;5064024;28;20028;-76
2023/11/09 01:42:05;;;;;;;14.23;6.47;;;;;;;6.30;100.00;97954.53;5076544;28;20028;-76
2023/11/09 01:44:33;;;;;;;14.38;6.10;;;;;;;6.33;100.00;97963.28;5077908;28;20032;-76
2023/11/09 01:46:59;;;;;;;10.32;6.40;;;;;;;6.25;100.00;97961.81;5073354;28;20037;-76
2023/11/09 01:49:25;;;;;;;12.25;6.15;;;;;;;6.23;100.00;97958.34;5080617;28;20028;-76
2023/11/09 01:51:54;;;;;;;9.30;5.55;;;;;;;6.20;100.00;97971.75;5062506;28;20133;-76
2023/11/09 01:54:21;;;;;;;9.05;5.40;;;;;;;6.07;100.00;97965.16;5090345;28;20518;-76
2023/11/09 01:56:46;;;;;;;9.63;6.03;;;;;;;5.99;100.00;97962.81;5075006;28;20025;-76
2023/11/09 01:59:14;;;;;;;8.98;5.82;;;;;;;6.04;100.00;97973.25;5089878;28;20031;-76
2023/11/09 02:01:41;;;;;;;8.90;6.03;;;;;;;5.92;100.00;97975.44;5065515;28;20031;-76
2023/11/09 02:04:07;;;;;;;9.98;6.05;;;;;;;6.00;100.00;97978.66;5082043;28;20020;-76
2023/11/09 02:06:34;;;;;;;9.68;6.18;;;;;;;5.92;100.00;97963.94;5059989;28;20028;-76
2023/11/09 02:09:00;;;;;;;12.65;6.47;;;;;;;5.98;100.00;97971.69;5078737;28;20020;-75
2023/11/09 02:11:26;;;;;;;13.23;7.32;;;;;;;5.96;100.00;97982.38;5083089;28;20027;-76
2023/11/09 02:13:52;;;;;;;15.45;7.00;;;;;;;5.93;100.00;97990.47;5082311;28;20020;-76
2023/11/09 02:16:17;;;;;;;12.15;7.05;;;;;;;5.91;100.00;97972.81;5068120;28;20074;-75
2023/11/09 02:18:43;;;;;;;11.05;6.60;;;;;;;5.98;100.00;97980.53;5074170;28;20118;-76
2023/11/09 02:21:11;;;;;;;11.07;7.32;;;;;;;5.97;100.00;97976.13;5075606;28;20047;-76
2023/11/09 02:23:38;;;;;;;10.07;7.40;;;;;;;6.00;100.00;97983.97;5061919;28;20062;-77
2023/11/09 02:26:04;;;;;;;11.93;7.03;;;;;;;5.99;100.00;98003.50;5050428;28;20025;-77
2023/11/09 02:28:31;;;;;;;11.55;6.93;;;;;;;5.90;100.00;98002.97;5076923;28;20028;-77
2023/11/09 02:30:57;;;;;;;13.50;6.93;;;;;;;5.94;100.00;98013.41;5079055;28;20568;-77
2023/11/09 02:33:23;;;;;;;9.68;6.32;;;;;;;5.98;100.00;98016.81;5062108;28;20024;-76
2023/11/09 02:35:49;;;;;;;13.13;7.28;;;;;;;5.99;100.00;98013.25;5070530;28;20093;-77
2023/11/09 02:38:15;;;;;;;15.02;7.55;;;;;;;5.91;100.00;98005.56;5063417;28;20029;-77
2023/11/09 02:40:40;;;;;;;11.40;7.10;;;;;;;5.86;100.00;98012.81;5083437;28;20031;-77
2023/11/09 02:43:06;;;;;;;14.75;6.72;;;;;;;5.88;100.00;98008.31;5061493;28;20039;-77
2023/11/09 02:45:32;;;;;;;13.07;7.28;;;;;;;5.74;100.00;97999.09;5075237;28;20071;-78
2023/11/09 02:47:58;;;;;;;12.30;6.88;;;;;;;5.77;100.00;98015.78;5060565;28;20048;-77
2023/11/09 02:50:23;;;;;;;19.00;7.63;;;;;;;5.80;100.00;98007.69;5076027;28;20061;-76
2023/11/09 02:52:49;;;;;;;14.73;7.70;;;;;;;5.80;100.00;98014.78;5075002;28;20028;-76
2023/11/09 02:55:21;;;;;;;11.75;7.78;;;;;;;5.66;100.00;98004.66;5069550;28;20016;-76
2023/11/09 02:57:46;;;;;;;13.68;7.50;;;;;;;5.67;100.00;98014.34;5080607;28;20036;-76
2023/11/09 03:00:12;;;;;;;14.50;8.25;;;;;;;5.59;100.00;98019.06;5059205;28;20036;-76
2023/11/09 03:02:39;;;;;;;13.90;8.30;;;;;;;5.57;100.00;98010.28;5082525;28;20061;-77
2023/11/09 03:05:05;;;;;;;15.15;8.75;;;;;;;5.66;100.00;98019.72;5077887;28;20035;-76
2023/11/09 03:07:31;;;;;;;14.13;8.57;;;;;;;5.64;100.00;98016.25;5072068;28;20050;-77
2023/11/09 03:09:56;;;;;;;16.77;10.32;;;;;;;5.59;100.00;98018.19;5077806;28;20210;-77
2023/11/09 03:12:22;;;;;;;18.10;10.02;;;;;;;5.49;100.00;98012.34;5057438;28;20119;-76
2023/11/09 03:14:48;;;;;;;14.60;8.23;;;;;;;5.45;100.00;98019.53;5064445;28;20028;-76
2023/11/09 03:17:13;;;;;;;13.80;7.38;;;;;;;5.28;100.00;98026.34;5076982;28;21074;-76
2023/11/09 03:19:39;;;;;;;13.98;7.75;;;;;;;5.24;100.00;98022.03;5081046;28;20109;-76
2023/11/09 03:22:11;;;;;;;12.10;6.97;;;;;;;5.17;100.00;98031.97;5073018;28;20032;-76
2023/11/09 03:24:39;;;;;;;;;;;;;;;5.07;100.00;98027.91;5067325;28;20028;-77
2023/11/09 03:27:05;;;;;;;16.42;6.82;;;;;;;4.97;100.00;98025.59;5062639;28;19994;-77
2023/11/09 03:29:31;;;;;;;10.95;6.57;;;;;;;5.03;100.00;98028.03;5056415;28;20531;-77
2023/11/09 03:31:56;;;;;;;14.27;8.73;;;;;;;4.99;100.00;98023.75;5071908;28;20028;-76
2023/11/09 03:34:23;;;;;;;11.02;6.95;;;;;;;4.96;100.00;98022.06;5061056;28;20043;-76
2023/11/09 03:36:49;;;;;;;9.93;6.28;;;;;;;4.93;100.00;98025.69;5052469;28;20043;-76
2023/11/09 03:39:14;;;;;;;11.20;7.15;;;;;;;4.97;100.00;98038.84;5080159;28;20032;-75
2023/11/09 03:41:43;;;;;;;15.40;8.00;;;;;;;4.93;100.00;98035.44;5084023;28;20352;-77
2023/11/09 03:44:12;;;;;;;15.32;7.70;;;;;;;5.02;100.00;98031.59;5077536;28;20030;-77
2023/11/09 03:46:38;;;;;;;15.25;7.45;;;;;;;4.97;100.00;98022.94;5072084;28;20400;-77
2023/11/09 03:49:04;;;;;;;12.40;7.28;;;;;;;4.90;100.00;98023.16;5056102;28;20029;-77
2023/11/09 03:51:29;;;;;;;13.90;7.25;;;;;;;4.96;100.00;98029.16;5086575;28;20020;-77
2023/11/09 03:53:56;;;;;;;13.23;6.97;;;;;;;4.84;100.00;98033.06;5070914;28;20024;-77
2023/11/09 03:56:23;;;;;;;17.02;9.00;;;;;;;4.79;100.00;98042.97;5070633;28;20033;-76
2023/11/09 03:58:48;;;;;;;20.02;10.13;;;;;;;4.72;100.00;98033.44;5077448;28;20021;-75
2023/11/09 04:01:14;;;;;;;21.00;8.85;;;;;;;4.72;100.00;98029.03;5063286;28;20016;-76
2023/11/09 04:03:40;;;;;;;20.08;9.43;;;;;;;4.67;100.00;98030.09;5083266;28;20103;-76
2023/11/09 04:06:05;;;;;;;16.52;8.23;;;;;;;4.61;100.00;98031.16;5063862;28;20403;-76
2023/11/09 04:08:31;;;;;;;16.17;7.85;;;;;;;4.61;100.00;98039.09;5083853;28;20024;-76
2023/11/09 04:10:56;;;;;;;22.60;10.10;;;;;;;4.54;100.00;98024.28;5061107;28;20040;-76
2023/11/09 04:13:22;;;;;;;19.95;9.68;;;;;;;4.53;100.00;98034.91;5084977;28;20059;-77
2023/11/09 04:15:48;;;;;;;24.52;9.38;;;;;;;4.43;100.00;98015.78;5060006;28;20055;-77
2023/11/09 04:18:13;;;;;;;20.00;11.68;;;;;;;4.57;100.00;98039.22;5090156;28;20047;-77
2023/11/09 04:20:39;;;;;;;19.75;9.65;;;;;;;4.57;100.00;98024.19;5069752;28;20128;-77
2023/11/09 04:23:04;;;;;;;13.55;7.85;;;;;;;4.48;100.00;98035.06;5057119;28;20039;-77
2023/11/09 04:25:30;;;;;;;10.65;6.82;;;;;;;4.39;100.00;98016.81;5088001;28;20032;-76
2023/11/09 04:27:55;;;;;;;12.52;7.03;;;;;;;4.23;100.00;98024.34;5083792;28;20032;-78
2023/11/09 04:30:25;;;;;;;13.02;7.38;;;;;;;4.15;100.00;98041.38;5089050;28;20032;-76
2023/11/09 04:32:55;;;;;;;13.38;7.25;;;;;;;4.17;100.00;98034.22;5064755;28;20024;-76
2023/11/09 04:35:24;;;;;;;17.85;8.57;;;;;;;4.30;100.00;98035.63;5087175;28;20387;-76
2023/11/09 04:37:54;;;;;;;22.05;10.65;;;;;;;4.27;100.00;98041.88;5087870;28;20024;-77
2023/11/09 04:40:22;;;;;;;19.75;9.13;;;;;;;4.22;100.00;98037.59;5084813;28;20032;-77
2023/11/09 04:42:49;;;;;;;22.92;9.70;;;;;;;4.13;100.00;98037.88;5068859;28;20436;-77
2023/11/09 04:45:16;;;;;;;43.63;14.27;;;;;;;4.15;100.00;98046.66;5072137;28;20024;-77
2023/11/09 04:47:45;;;;;;;27.98;13.20;;;;;;;4.20;100.00;98040.31;5072282;28;20119;-77
2023/11/09 04:50:17;;;;;;;25.75;10.32;;;;;;;4.22;100.00;98042.91;5071124;28;20039;-77
2023/11/09 04:52:56;;;;;;;16.65;9.07;;;;;;;4.19;100.00;98045.63;5064716;28;20508;-75
2023/11/09 04:55:31;;;;;;;52.05;17.33;;;;;;;4.16;100.00;98065.13;5073702;28;20034;-76
2023/11/09 05:09:04;;;;;;;26.65;12.88;;;;;;;4.13;100.00;98065.22;5065917;28;20097;-76
2023/11/09 05:11:30;;;;;;;16.88;8.85;;;;;;;4.08;100.00;98066.25;5072098;28;20534;-74
2023/11/09 05:13:55;;;;;;;17.73;8.50;;;;;;;4.07;100.00;98067.16;5093194;28;20039;-79
2023/11/09 05:16:21;;;;;;;17.08;8.50;;;;;;;4.07;100.00;98059.22;5079948;28;20031;-76
2023/11/09 05:18:47;;;;;;;38.60;16.98;;;;;;;4.07;100.00;98054.81;5086476;28;20055;-77
2023/11/09 05:21:13;;;;;;;29.00;13.70;;;;;;;4.16;100.00;98070.41;5055437;28;20157;-77
2023/11/09 05:23:39;;;;;;;31.88;14.68;;;;;;;4.07;100.00;98069.81;5070521;28;20494;-74
2023/11/09 05:26:04;;;;;;;52.30;20.00;;;;;;;4.16;100.00;98082.78;5070880;28;20033;-72
2023/11/09 05:28:31;;;;;;;23.15;10.30;;;;;;;4.14;100.00;98082.84;5054206;28;20419;-74
2023/11/09 05:30:57;;;;;;;17.13;9.63;;;;;;;4.11;100.00;98079.41;5070981;28;20029;-73
2023/11/09 05:33:23;;;;;;;13.40;8.45;;;;;;;4.07;100.00;98080.41;5078866;28;20044;-74
2023/11/09 05:35:49;;;;;;;16.50;9.25;;;;;;;4.12;100.00;98083.81;5092615;28;20024;-74
2023/11/09 05:38:14;;;;;;;23.42;11.57;;;;;;;3.96;100.00;98090.41;5088759;28;20113;-72
2023/11/09 05:40:43;;;;;;;192.77;14.85;;;;;;;3.67;100.00;98086.75;5070665;28;20039;-73
2023/11/09 05:43:11;;;;;;;22.95;11.02;;;;;;;3.62;100.00;98093.97;5071900;28;20480;-73
2023/11/09 05:45:36;;;;;;;131.10;15.50;;;;;;;3.57;100.00;98093.19;5070555;28;20489;-73
2023/11/09 05:48:02;;;;;;;74.55;13.40;;;;;;;3.59;100.00;98088.75;5071786;28;20032;-74
2023/11/09 05:50:28;;;;;;;38.95;15.68;;;;;;;3.58;100.00;98105.50;5072054;28;20081;-73
2023/11/09 05:53:06;;;;;;;59.33;19.95;;;;;;;3.60;100.00;98105.50;5070260;28;20492;-74
2023/11/09 05:55:31;;;;;;;46.88;21.00;;;;;;;3.74;100.00;98103.34;5053914;28;20087;-73
2023/11/09 05:57:58;;;;;;;42.60;20.15;;;;;;;3.94;100.00;98116.06;5070439;28;20519;-74
2023/11/09 06:00:26;;;;;;;46.08;22.33;;;;;;;4.27;100.00;98115.16;5053790;28;20025;-74
2023/11/09 06:02:52;;;;;;;44.95;20.63;;;;;;;4.44;100.00;98112.88;5070366;28;20024;-73
2023/11/09 06:05:18;;;;;;;57.95;20.55;;;;;;;4.58;100.00;98123.97;5071350;28;20038;-72
2023/11/09 06:07:44;;;;;;;53.15;19.25;;;;;;;4.58;100.00;98125.72;5071281;28;20020;-73
2023/11/09 06:10:13;;;;;;;92.18;29.58;;;;;;;4.65;100.00;98125.50;5053369;28;20027;-75
2023/11/09 06:12:40;;;;;;;93.13;30.52;;;;;;;4.87;100.00;98125.72;5087006;28;20030;-74
2023/11/09 06:15:06;;;;;;;65.32;20.67;;;;;;;5.13;100.00;98127.59;5091952;28;20028;-73
2023/11/09 06:17:32;;;;;;;137.25;13.40;;;;;;;5.24;100.00;98130.75;5072908;28;20059;-72
2023/11/09 06:19:59;;;;;;;71.07;12.48;;;;;;;5.66;100.00;98136.50;5089915;28;20131;-73
2023/11/09 06:22:25;;;;;;;61.28;10.93;;;;;;;5.75;100.00;98137.03;5077182;28;20411;-73
2023/11/09 06:24:51;;;;;;;51.50;13.07;;;;;;;5.84;100.00;98131.44;5089943;28;20035;-74
2023/11/09 06:27:18;;;;;;;46.05;13.38;;;;;;;6.15;100.00;98133.06;5090768;28;20051;-73
2023/11/09 06:29:44;;;;;;;102.55;12.70;;;;;;;6.22;100.00;98129.25;5091183;28;20020;-72
2023/11/09 06:32:12;;;;;;;126.85;13.00;;;;;;;6.10;100.00;98121.72;5091249;28;20055;-73
2023/11/09 06:34:39;;;;;;;75.55;13.77;;;;;;;6.29;100.00;98129.00;5091089;28;20031;-73
2023/11/09 06:37:05;;;;;;;28.10;12.57;;;;;;;6.45;100.00;98126.66;5089984;28;20473;-73
2023/11/09 06:39:30;;;;;;;116.15;20.40;;;;;;;6.38;100.00;98122.47;5089746;28;20027;-73
2023/11/09 06:41:56;;;;;;;41.85;17.83;;;;;;;6.17;100.00;98117.94;5087444;28;20426;-73
2023/11/09 06:44:21;;;;;;;67.40;13.77;;;;;;;6.10;100.00;98119.06;5069455;28;20020;-74
2023/11/09 06:46:49;;;;;;;68.50;11.77;;;;;;;5.85;100.00;98132.28;5069356;28;20021;-73
2023/11/09 06:49:17;;;;;;;49.38;11.98;;;;;;;6.04;100.00;98116.63;5052771;28;20035;-74
2023/11/09 06:51:43;;;;;;;62.10;17.95;;;;;;;5.96;100.00;98115.13;5069224;28;20040;-72
2023/11/09 06:54:08;;;;;;;41.63;17.15;;;;;;;6.11;100.00;98116.38;5084795;28;20027;-73
2023/11/09 06:56:36;;;;;;;94.72;22.60;;;;;;;6.18;100.00;98125.00;5090793;28;20085;-72
2023/11/09 06:59:05;;;;;;;118.03;26.88;;;;;;;6.28;100.00;98126.38;5091077;28;20036;-74
2023/11/09 07:01:31;;;;;;;77.03;25.33;;;;;;;6.46;100.00;98123.94;5089367;28;20027;-73
2023/11/09 07:03:57;;;;;;;69.78;22.92;;;;;;;6.54;100.00;98126.31;5089193;28;20031;-73
2023/11/09 07:06:22;;;;;;;86.30;25.15;;;;;;;6.78;100.00;98121.88;5071914;28;20480;-74
2023/11/09 07:08:51;;;;;;;76.95;25.27;;;;;;;7.06;100.00;98134.06;5069304;28;20093;-73
2023/11/09 07:11:16;;;;;;;74.50;23.02;;;;;;;7.51;100.00;98122.53;5070507;28;20054;-73
2023/11/09 07:13:43;;;;;;;59.90;15.65;;;;;;;7.24;100.00;98118.31;5068928;28;20071;-74
2023/11/09 07:16:08;;;;;;;71.68;14.80;;;;;;;6.99;100.00;98121.06;5069033;28;20028;-73
2023/11/09 07:18:35;;;;;;;29.42;12.23;;;;;;;7.12;100.00;98124.97;5069262;28;20029;-74
2023/11/09 07:21:02;;;;;;;38.03;14.23;;;;;;;7.35;100.00;98132.06;5052168;28;20201;-73
2023/11/09 07:23:29;;;;;;;35.25;13.88;;;;;;;7.38;100.00;98126.63;5068916;28;20041;-73
2023/11/09 07:25:55;;;;;;;57.55;17.02;;;;;;;7.71;100.00;98113.72;5070165;28;20404;-74
2023/11/09 07:28:20;;;;;;;37.97;16.13;;;;;;;7.99;100.00;98112.53;5068852;28;20017;-74
2023/11/09 07:30:48;;;;;;;16.15;7.43;;;;;;;7.94;100.00;98114.50;5051971;28;20177;-74
2023/11/09 07:33:14;;;;;;;11.23;6.75;;;;;;;8.34;100.00;98102.13;5068896;28;20116;-72
2023/11/09 07:35:46;;;;;;;17.27;8.80;;;;;;;8.73;100.00;98110.16;5068598;28;20513;-75
2023/11/09 07:38:14;;;;;;;10.27;6.30;;;;;;;8.74;100.00;98112.75;5068687;28;20024;-73
2023/11/09 07:40:41;;;;;;;13.18;6.68;;;;;;;9.09;100.00;98106.66;5068862;28;20086;-73
2023/11/09 07:43:08;;;;;;;9.85;5.78;;;;;;;8.62;100.00;98095.53;5068928;28;20035;-73
2023/11/09 07:45:35;;;;;;;13.80;5.97;;;;;;;8.80;100.00;98096.47;5051702;28;20515;-73
2023/11/09 07:48:01;;;;;;;12.05;6.93;;;;;;;8.88;100.00;98094.34;5068724;28;20028;-73
2023/11/09 07:50:27;;;;;;;15.02;7.63;;;;;;;9.03;100.00;98093.63;5068908;28;20028;-72
2023/11/09 07:52:53;;;;;;;11.23;7.05;;;;;;;9.30;100.00;98110.13;5070481;28;20101;-73
2023/11/09 07:55:19;;;;;;;19.30;7.63;;;;;;;9.54;100.00;98105.38;5073889;28;20017;-72
2023/11/09 07:57:48;;;;;;;15.35;6.65;;;;;;;9.30;100.00;98096.75;5055762;28;20031;-73
2023/11/09 08:00:15;;;;;;;22.98;7.15;;;;;;;9.37;100.00;98105.34;5072521;28;20472;-73
2023/11/09 08:02:41;;;;;;;18.05;7.88;;;;;;;9.51;100.00;98103.72;5055776;28;20028;-73
2023/11/09 08:05:13;;;;;;;16.70;8.70;;;;;;;9.62;100.00;98097.88;5073425;28;20047;-73
2023/11/09 08:07:43;;;;;;;19.77;7.95;;;;;;;11.48;100.00;98097.72;5072500;28;20412;-74
2023/11/09 08:10:12;;;;;;;17.77;8.00;;;;;;;13.35;100.00;98059.41;5072410;28;20127;-74
2023/11/09 08:12:41;;;;;;;18.98;9.15;;;;;;;15.19;100.00;98053.00;5072178;28;20107;-74
2023/11/09 08:15:13;;;;;;;31.45;9.75;;;;;;;16.03;100.00;98040.38;5072347;28;20032;-74
2023/11/09 08:17:41;;;;;;;17.15;8.13;;;;;;;16.07;100.00;98046.41;5073302;28;20107;-74
2023/11/09 08:20:13;;;;;;;18.05;8.07;;;;;;;16.18;100.00;98041.91;5055435;28;20055;-73
2023/11/09 08:22:44;;;;;;;14.13;8.63;;;;;;;16.31;100.00;98041.84;5072235;28;20047;-73
2023/11/09 08:25:12;;;;;;;21.67;9.90;;;;;;;16.28;100.00;98055.56;5071885;28;20021;-74
2023/11/09 08:27:40;;;;;;;16.30;9.40;;;;;;;16.93;96.14;98049.59;5072466;28;20379;-75
2023/11/09 08:30:09;;;;;;;15.13;8.75;;;;;;;17.63;94.37;98042.06;5072161;28;20514;-73
2023/11/09 08:32:40;;;;;;;32.70;11.68;;;;;;;17.62;88.17;98043.94;5072169;28;20377;-73
2023/11/09 08:35:10;;;;;;;21.23;12.73;;;;;;;17.61;91.10;98039.50;5088519;28;20497;-73
2023/11/09 08:37:37;;;;;;;30.83;12.85;;;;;;;17.97;82.82;98035.56;5075758;28;20450;-73
2023/11/09 08:40:09;;;;;;;25.02;10.48;;;;;;;18.21;80.50;98036.19;5092243;28;20136;-72
2023/11/09 08:42:36;;;;;;;21.25;10.43;;;;;;;18.12;87.28;98038.84;5092249;28;20024;-73
2023/11/09 08:45:04;;;;;;;28.60;11.55;;;;;;;18.51;87.88;98043.59;5092124;28;20090;-74
2023/11/09 08:47:29;;;;;;;22.17;11.75;;;;;;;18.90;82.10;98032.00;5068725;28;20052;-74
2023/11/09 08:49:55;;;;;;;35.28;13.35;;;;;;;18.52;79.43;98036.34;5090193;28;20066;-74
2023/11/09 08:52:23;;;;;;;23.40;13.93;;;;;;;18.76;77.49;98040.50;5091826;28;20034;-74
2023/11/09 08:54:52;;;;;;;45.20;16.85;;;;;;;18.88;80.58;98036.72;5082408;28;20558;-74
2023/11/09 08:57:18;;;;;;;24.30;13.25;;;;;;;19.00;76.39;98042.03;5071301;28;20067;-74
2023/11/09 08:59:44;;;;;;;19.92;11.52;;;;;;;19.28;78.28;98038.59;5071487;28;20088;-73
2023/11/09 09:02:09;;;;;;;16.15;10.93;;;;;;;19.14;69.39;98028.09;5054759;28;20028;-74
2023/11/09 09:04:35;;;;;;;15.35;10.30;;;;;;;18.92;75.69;98038.13;5070890;28;20093;-74
2023/11/09 09:07:01;;;;;;;13.63;9.27;;;;;;;18.88;76.64;98033.13;5071080;28;20123;-74
2023/11/09 09:09:26;;;;;;;14.70;8.70;;;;;;;19.39;73.95;98035.78;5071227;28;20021;-72
2023/11/09 09:11:52;;;;;;;13.55;7.90;;;;;;;19.04;75.34;98032.66;5072546;28;20030;-73
2023/11/09 09:14:18;;;;;;;16.00;7.70;;;;;;;18.95;72.74;98029.72;5072460;28;20031;-73
2023/11/09 09:16:44;;;;;;;18.38;7.70;;;;;;;19.96;70.86;98022.34;5071161;28;20028;-72
2023/11/09 09:19:09;;;;;;;9.10;5.75;;;;;;;20.69;62.77;98004.59;5072095;28;20027;-73
2023/11/09 09:21:36;;;;;;;12.27;5.00;;;;;;;20.75;56.69;97995.00;5071001;28;20039;-73
2023/11/09 09:24:03;;;;;;;7.88;4.55;;;;;;;20.74;63.52;98001.44;5070901;28;20024;-74
2023/11/09 09:26:31;;;;;;;10.90;4.53;;;;;;;20.20;57.09;97996.63;5070891;28;20055;-73
2023/11/09 09:28:57;;;;;;;7.97;4.78;;;;;;;20.61;55.72;97996.31;5071887;28;20037;-74
2023/11/09 09:31:23;;;;;;;8.95;5.32;;;;;;;21.42;52.64;97986.59;5054661;28;20035;-72
2023/11/09 09:34:07;;;;;;;11.20;5.15;;;;;;;22.58;50.62;97985.56;5070798;28;20028;-75
2023/11/09 09:36:34;;;;;;;9.77;5.50;;;;;;;22.56;51.81;97987.59;5070801;28;20392;-73
2023/11/09 09:39:00;;;;;;;9.05;4.93;;;;;;;22.21;53.14;97984.06;5053899;28;20025;-73
2023/11/09 09:41:28;;;;;;;7.80;5.20;;;;;;;22.37;51.93;97982.31;5070703;28;20073;-73
2023/11/09 09:43:59;;;;;;;9.45;5.30;;;;;;;20.96;52.64;97982.03;5070778;28;20039;-73
2023/11/09 09:46:26;;;;;;;8.40;5.35;;;;;;;21.08;52.96;97984.47;5070479;28;20031;-73
2023/11/09 09:48:55;;;;;;;9.82;5.20;;;;;;;21.94;51.16;97969.50;5053954;28;20036;-73
2023/11/09 09:51:23;;;;;;;7.15;5.25;;;;;;;21.20;51.29;97976.09;5070659;28;20074;-72
2023/11/09 09:53:51;;;;;;;12.85;5.05;;;;;;;22.13;51.40;97974.81;5070404;28;20042;-73
2023/11/09 09:56:19;;;;;;;8.77;4.22;;;;;;;22.29;51.45;97975.94;5070549;28;20377;-73
2023/11/09 09:58:44;;;;;;;5.55;4.10;;;;;;;22.37;48.44;97956.91;5085343;28;20123;-73
2023/11/09 10:01:11;;;;;;;12.88;4.10;;;;;;;22.90;45.53;97940.44;5073613;28;20111;-74
2023/11/09 10:03:37;;;;;;;8.52;4.15;;;;;;;23.33;44.75;97937.56;5068521;28;20032;-73
2023/11/09 10:06:06;;;;;;;9.43;4.30;;;;;;;24.19;44.16;97938.16;5079729;28;20460;-74
2023/11/09 10:08:32;;;;;;;16.83;4.40;;;;;;;23.73;45.28;97934.13;5070747;28;20553;-74
2023/11/09 10:10:58;;;;;;;5.05;3.38;;;;;;;23.75;44.34;97929.34;5053683;28;20028;-74
2023/11/09 10:13:27;;;;;;;6.45;3.63;;;;;;;23.16;45.90;97938.53;5070285;28;20031;-75
2023/11/09 10:16:00;;;;;;;4.93;3.08;;;;;;;22.68;45.26;97928.22;5085214;28;20107;-73
2023/11/09 10:18:27;;;;;;;10.75;3.35;;;;;;;23.46;44.66;97934.41;5091571;28;20031;-73
2023/11/09 10:20:55;;;;;;;5.05;3.15;;;;;;;24.48;43.91;97927.56;5090280;28;20488;-73
2023/11/09 10:23:21;;;;;;;9.95;4.15;;;;;;;24.86;43.08;97920.47;5090446;28;20035;-73
2023/11/09 10:25:47;;;;;;;6.18;2.92;;;;;;;25.33;42.30;97923.22;5073208;28;20133;-73
2023/11/09 10:28:13;;;;;;;6.68;3.47;;;;;;;24.66;42.85;97924.63;5072902;28;20122;-73
2023/11/09 10:30:45;;;;;;;9.68;2.30;;;;;;;24.93;43.39;97928.84;5072951;28;20039;-73
2023/11/09 10:33:18;;;;;;;3.97;2.20;;;;;;;25.37;40.57;97904.56;5089934;28;20060;-75
2023/11/09 10:35:46;;;;;;;5.18;2.40;;;;;;;25.54;40.55;97903.47;5090067;28;20490;-74
2023/11/09 10:38:13;;;;;;;4.65;1.73;;;;;;;24.55;41.20;97903.09;5072965;28;20070;-75
2023/11/09 10:40:41;;;;;;;1.92;1.73;;;;;;;23.59;42.09;97904.75;5089979;28;20034;-74
2023/11/09 10:43:08;;;;;;;1.85;1.58;;;;;;;24.37;39.40;97894.22;5089577;28;20039;-74
2023/11/09 10:45:37;;;;;;;2.00;1.42;;;;;;;23.89;39.24;97892.31;5066483;28;20028;-74
2023/11/09 10:48:08;;;;;;;2.78;1.38;;;;;;;24.41;39.90;97893.72;5069400;28;20024;-74
2023/11/09 10:50:55;;;;;;;8.23;1.52;;;;;;;25.39;36.87;97878.69;5052966;28;20416;-74
2023/11/09 10:53:21;;;;;;;1.33;1.23;;;;;;;25.61;36.85;97879.78;5055499;28;20044;-74
2023/11/09 10:55:49;;;;;;;3.13;1.60;;;;;;;26.42;35.64;97883.59;5069554;28;20024;-75
2023/11/09 10:58:20;;;;;;;2.33;0.90;;;;;;;25.84;33.91;97866.97;5070439;28;20111;-74
2023/11/09 11:00:48;;;;;;;1.20;1.10;;;;;;;25.56;34.09;97869.38;5070686;28;20020;-75
2023/11/09 11:03:54;;;;;;;2.85;1.10;;;;;;;25.44;34.30;97853.50;5070370;28;20076;-75
2023/11/09 11:06:31;;;;;;;1.50;1.30;;;;;;;25.43;34.84;97862.75;5012083;28;20421;-75
2023/11/09 11:09:02;;;;;;;2.35;1.25;;;;;;;25.05;35.08;97856.25;5062904;28;20045;-74
2023/11/09 11:11:30;;;;;;;5.37;1.20;;;;;;;25.59;33.98;97859.94;5052798;28;20381;-75
2023/11/09 11:14:00;;;;;;;3.33;1.40;;;;;;;25.70;33.42;97859.50;5052614;28;20335;-74
2023/11/09 11:17:00;;;;;;;2.08;1.30;;;;;;;26.70;32.70;97853.66;5052604;28;20032;-74
2023/11/09 11:20:03;;;;;;;3.20;1.10;;;;;;;25.90;33.83;97855.28;5068776;28;20048;-74
2023/11/09 11:23:02;;;;;;;3.30;1.50;;;;;;;25.03;32.56;97840.03;5070255;28;20052;-74
2023/11/09 11:25:50;;;;;;;4.95;1.10;;;;;;;25.22;31.80;97845.06;5068708;28;20031;-73
2023/11/09 11:28:17;;;;;;;4.78;1.25;;;;;;;25.08;32.30;97831.25;5057651;28;20098;-75
2023/11/09 11:30:43;;;;;;;2.17;1.40;;;;;;;25.71;30.80;97823.72;5053864;28;20024;-78
2023/11/09 11:33:16;;;;;;;2.15;1.40;;;;;;;25.32;31.36;97822.91;5081174;28;20563;-74
2023/11/09 11:35:56;;;;;;;4.50;1.70;;;;;;;25.56;31.70;97819.22;5081860;28;20016;-74
2023/11/09 11:38:29;;;;;;;5.55;1.38;;;;;;;24.99;33.21;97827.72;5082617;28;20017;-75